Flugplatz Brilon/Hochsauerlandkreis

Für EDKO sind keine METAR/TAF Berichte vorhanden.
Es werden die Flugwettermeldungen vom Flugplatz Paderborn Lippstadt in 23 km Entfernung angezeigt.

Bericht für EDLP

vom 29.09. um 14:50 UTC

variable Windrichtung mit 2 kt

Sichtweite 10 km oder mehr

gute Sicht, keine Wolken < 5000 ft, keine CB, keine Wettererscheinungen (CAVOK)

Temperatur 13.0°C

Taupunkt 4.0°C

Luftfeuchtigkeit 54%

Luftdruck 1003 hPa

EDLP 291450Z VRB02KT CAVOK 13/04 Q1003

Prognose für EDLP

vom 29.09. um 11:00 UTC

Zwischen 12:00 UTC und 09:00 UTC

variable Windrichtung mit 3 kt

Sichtweite 10 km oder mehr

aufgelockert bewölkt in 3000 ft


Zwischen 19:00 UTC und 06:00 UTC zeitweise

Wind 5 kt aus 180°


Am 30.09. zwischen 09:00 und 12:00 UTC übergehend zu

Wind 7 kt aus 230°

Sichtweite 10 km oder mehr

aufgelockert bewölkt in 3000 ft

TAF EDLP 291100Z 2912/3012 VRB03KT 9999 SCT030 TEMPO 2919/3006 18005KT BECMG 3009/3012 23007KT
Impressum